sensor_id;sensor_type;location;lat;lon;timestamp;P1;durP1;ratioP1;P2;durP2;ratioP2
68168;SDS011;54981;50.206;15.978;2023-05-07T00:01:13;15.77;;;14.35;;
68168;SDS011;54981;50.206;15.978;2023-05-07T00:03:43;15.82;;;14.48;;
68168;SDS011;54981;50.206;15.978;2023-05-07T00:06:14;13.98;;;12.73;;
68168;SDS011;54981;50.206;15.978;2023-05-07T00:08:44;15.00;;;13.70;;
68168;SDS011;54981;50.206;15.978;2023-05-07T00:11:15;14.68;;;13.55;;
68168;SDS011;54981;50.206;15.978;2023-05-07T00:13:45;14.80;;;13.60;;
68168;SDS011;54981;50.206;15.978;2023-05-07T00:16:16;13.30;;;12.10;;
68168;SDS011;54981;50.206;15.978;2023-05-07T00:18:46;14.38;;;13.10;;
68168;SDS011;54981;50.206;15.978;2023-05-07T00:21:16;14.25;;;12.98;;
68168;SDS011;54981;50.206;15.978;2023-05-07T00:23:47;14.18;;;12.88;;
68168;SDS011;54981;50.206;15.978;2023-05-07T00:26:17;13.13;;;12.02;;
68168;SDS011;54981;50.206;15.978;2023-05-07T00:28:48;13.10;;;11.85;;
68168;SDS011;54981;50.206;15.978;2023-05-07T00:31:18;13.75;;;12.48;;
68168;SDS011;54981;50.206;15.978;2023-05-07T00:33:48;13.65;;;12.45;;
68168;SDS011;54981;50.206;15.978;2023-05-07T00:36:19;13.45;;;12.35;;
68168;SDS011;54981;50.206;15.978;2023-05-07T00:38:49;12.15;;;11.10;;
68168;SDS011;54981;50.206;15.978;2023-05-07T00:41:19;12.57;;;11.52;;
68168;SDS011;54981;50.206;15.978;2023-05-07T00:43:50;12.35;;;11.27;;
68168;SDS011;54981;50.206;15.978;2023-05-07T00:46:21;12.95;;;11.85;;
68168;SDS011;54981;50.206;15.978;2023-05-07T00:48:52;12.68;;;11.57;;
68168;SDS011;54981;50.206;15.978;2023-05-07T00:51:24;13.05;;;11.95;;
68168;SDS011;54981;50.206;15.978;2023-05-07T00:53:57;13.88;;;12.68;;
68168;SDS011;54981;50.206;15.978;2023-05-07T00:56:27;14.00;;;12.70;;
68168;SDS011;54981;50.206;15.978;2023-05-07T00:58:58;12.93;;;11.73;;
68168;SDS011;54981;50.206;15.978;2023-05-07T01:01:29;13.57;;;12.38;;
68168;SDS011;54981;50.206;15.978;2023-05-07T01:03:59;13.27;;;12.07;;
68168;SDS011;54981;50.206;15.978;2023-05-07T01:06:30;14.05;;;12.75;;
68168;SDS011;54981;50.206;15.978;2023-05-07T01:09:02;12.95;;;11.75;;
68168;SDS011;54981;50.206;15.978;2023-05-07T01:11:34;12.82;;;11.75;;
68168;SDS011;54981;50.206;15.978;2023-05-07T01:14:05;14.68;;;13.32;;
68168;SDS011;54981;50.206;15.978;2023-05-07T01:16:36;13.45;;;12.25;;
68168;SDS011;54981;50.206;15.978;2023-05-07T01:19:08;15.65;;;14.25;;
68168;SDS011;54981;50.206;15.978;2023-05-07T01:21:40;15.63;;;14.23;;
68168;SDS011;54981;50.206;15.978;2023-05-07T01:24:17;16.98;;;15.48;;
68168;SDS011;54981;50.206;15.978;2023-05-07T01:26:48;16.52;;;15.05;;
68168;SDS011;54981;50.206;15.978;2023-05-07T01:29:18;16.02;;;14.60;;
68168;SDS011;54981;50.206;15.978;2023-05-07T01:31:49;16.38;;;15.07;;
68168;SDS011;54981;50.206;15.978;2023-05-07T01:34:21;17.13;;;15.45;;
68168;SDS011;54981;50.206;15.978;2023-05-07T01:36:54;16.20;;;14.82;;
68168;SDS011;54981;50.206;15.978;2023-05-07T01:39:28;16.10;;;14.75;;
68168;SDS011;54981;50.206;15.978;2023-05-07T01:41:59;15.88;;;14.57;;
68168;SDS011;54981;50.206;15.978;2023-05-07T01:44:29;15.23;;;13.93;;
68168;SDS011;54981;50.206;15.978;2023-05-07T01:47:01;13.82;;;12.73;;
68168;SDS011;54981;50.206;15.978;2023-05-07T01:49:32;14.65;;;13.45;;
68168;SDS011;54981;50.206;15.978;2023-05-07T01:52:03;16.20;;;14.80;;
68168;SDS011;54981;50.206;15.978;2023-05-07T01:54:33;14.52;;;13.23;;
68168;SDS011;54981;50.206;15.978;2023-05-07T01:57:04;14.90;;;13.63;;
68168;SDS011;54981;50.206;15.978;2023-05-07T01:59:35;14.07;;;12.98;;
68168;SDS011;54981;50.206;15.978;2023-05-07T02:02:05;15.15;;;13.85;;
68168;SDS011;54981;50.206;15.978;2023-05-07T02:04:36;15.55;;;14.35;;
68168;SDS011;54981;50.206;15.978;2023-05-07T02:07:07;15.07;;;13.88;;
68168;SDS011;54981;50.206;15.978;2023-05-07T02:09:37;16.45;;;15.15;;
68168;SDS011;54981;50.206;15.978;2023-05-07T02:12:07;14.52;;;13.32;;
68168;SDS011;54981;50.206;15.978;2023-05-07T02:14:38;16.27;;;15.05;;
68168;SDS011;54981;50.206;15.978;2023-05-07T02:17:08;16.65;;;15.30;;
68168;SDS011;54981;50.206;15.978;2023-05-07T02:19:38;16.45;;;15.07;;
68168;SDS011;54981;50.206;15.978;2023-05-07T02:22:09;16.10;;;14.68;;
68168;SDS011;54981;50.206;15.978;2023-05-07T02:24:40;17.52;;;16.02;;
68168;SDS011;54981;50.206;15.978;2023-05-07T02:27:10;17.08;;;15.65;;
68168;SDS011;54981;50.206;15.978;2023-05-07T02:29:40;17.58;;;16.10;;
68168;SDS011;54981;50.206;15.978;2023-05-07T02:32:11;18.80;;;17.20;;
68168;SDS011;54981;50.206;15.978;2023-05-07T02:34:41;18.05;;;16.55;;
68168;SDS011;54981;50.206;15.978;2023-05-07T02:37:11;19.90;;;18.30;;
68168;SDS011;54981;50.206;15.978;2023-05-07T02:39:42;19.13;;;17.52;;
68168;SDS011;54981;50.206;15.978;2023-05-07T02:42:12;19.05;;;17.48;;
68168;SDS011;54981;50.206;15.978;2023-05-07T02:44:42;19.77;;;17.98;;
68168;SDS011;54981;50.206;15.978;2023-05-07T02:47:14;19.13;;;17.45;;
68168;SDS011;54981;50.206;15.978;2023-05-07T02:49:45;19.42;;;17.73;;
68168;SDS011;54981;50.206;15.978;2023-05-07T02:52:15;18.15;;;16.63;;
68168;SDS011;54981;50.206;15.978;2023-05-07T02:54:46;16.70;;;15.32;;
68168;SDS011;54981;50.206;15.978;2023-05-07T02:57:16;16.85;;;15.30;;
68168;SDS011;54981;50.206;15.978;2023-05-07T02:59:47;17.52;;;16.13;;
68168;SDS011;54981;50.206;15.978;2023-05-07T03:02:17;17.67;;;16.17;;
68168;SDS011;54981;50.206;15.978;2023-05-07T03:04:48;17.33;;;15.73;;
68168;SDS011;54981;50.206;15.978;2023-05-07T03:07:18;18.30;;;16.60;;
68168;SDS011;54981;50.206;15.978;2023-05-07T03:09:48;21.90;;;19.92;;
68168;SDS011;54981;50.206;15.978;2023-05-07T03:12:19;19.88;;;18.00;;
68168;SDS011;54981;50.206;15.978;2023-05-07T03:14:50;20.80;;;18.98;;
68168;SDS011;54981;50.206;15.978;2023-05-07T03:17:21;20.77;;;18.85;;
68168;SDS011;54981;50.206;15.978;2023-05-07T03:19:51;21.02;;;19.02;;
68168;SDS011;54981;50.206;15.978;2023-05-07T03:22:22;20.48;;;18.52;;
68168;SDS011;54981;50.206;15.978;2023-05-07T03:24:52;21.05;;;19.15;;
68168;SDS011;54981;50.206;15.978;2023-05-07T03:27:22;19.63;;;17.15;;
68168;SDS011;54981;50.206;15.978;2023-05-07T03:29:54;19.55;;;17.65;;
68168;SDS011;54981;50.206;15.978;2023-05-07T03:32:24;18.92;;;17.13;;
68168;SDS011;54981;50.206;15.978;2023-05-07T03:34:55;19.38;;;17.55;;
68168;SDS011;54981;50.206;15.978;2023-05-07T03:37:25;19.02;;;17.17;;
68168;SDS011;54981;50.206;15.978;2023-05-07T03:39:56;19.92;;;18.13;;
68168;SDS011;54981;50.206;15.978;2023-05-07T03:42:26;19.88;;;18.10;;
68168;SDS011;54981;50.206;15.978;2023-05-07T03:44:56;19.23;;;17.42;;
68168;SDS011;54981;50.206;15.978;2023-05-07T03:47:27;18.92;;;17.23;;
68168;SDS011;54981;50.206;15.978;2023-05-07T03:49:57;19.25;;;17.55;;
68168;SDS011;54981;50.206;15.978;2023-05-07T03:52:27;18.90;;;17.10;;
68168;SDS011;54981;50.206;15.978;2023-05-07T03:54:58;17.55;;;15.85;;
68168;SDS011;54981;50.206;15.978;2023-05-07T03:57:28;19.08;;;17.38;;
68168;SDS011;54981;50.206;15.978;2023-05-07T03:59:58;17.83;;;16.20;;
68168;SDS011;54981;50.206;15.978;2023-05-07T04:02:29;17.15;;;15.55;;
68168;SDS011;54981;50.206;15.978;2023-05-07T04:04:59;19.15;;;17.38;;
68168;SDS011;54981;50.206;15.978;2023-05-07T04:07:30;19.88;;;18.08;;
68168;SDS011;54981;50.206;15.978;2023-05-07T04:10:01;17.80;;;16.17;;
68168;SDS011;54981;50.206;15.978;2023-05-07T04:12:31;17.08;;;15.48;;
68168;SDS011;54981;50.206;15.978;2023-05-07T04:15:01;17.25;;;15.65;;
68168;SDS011;54981;50.206;15.978;2023-05-07T04:17:32;18.77;;;17.08;;
68168;SDS011;54981;50.206;15.978;2023-05-07T04:20:02;18.42;;;16.88;;
68168;SDS011;54981;50.206;15.978;2023-05-07T04:22:33;17.55;;;16.05;;
68168;SDS011;54981;50.206;15.978;2023-05-07T04:25:03;18.30;;;16.52;;
68168;SDS011;54981;50.206;15.978;2023-05-07T04:27:34;18.38;;;16.77;;
68168;SDS011;54981;50.206;15.978;2023-05-07T04:30:05;17.58;;;15.93;;
68168;SDS011;54981;50.206;15.978;2023-05-07T04:32:36;16.95;;;15.48;;
68168;SDS011;54981;50.206;15.978;2023-05-07T04:35:07;16.05;;;14.52;;
68168;SDS011;54981;50.206;15.978;2023-05-07T04:37:37;18.23;;;16.52;;
68168;SDS011;54981;50.206;15.978;2023-05-07T04:40:08;16.23;;;14.77;;
68168;SDS011;54981;50.206;15.978;2023-05-07T04:42:38;16.35;;;14.93;;
68168;SDS011;54981;50.206;15.978;2023-05-07T04:45:09;17.38;;;15.70;;
68168;SDS011;54981;50.206;15.978;2023-05-07T04:47:40;16.42;;;15.05;;
68168;SDS011;54981;50.206;15.978;2023-05-07T04:50:10;17.08;;;15.57;;
68168;SDS011;54981;50.206;15.978;2023-05-07T04:52:41;15.43;;;14.13;;
68168;SDS011;54981;50.206;15.978;2023-05-07T04:55:12;15.82;;;14.30;;
68168;SDS011;54981;50.206;15.978;2023-05-07T04:57:42;15.63;;;14.23;;
68168;SDS011;54981;50.206;15.978;2023-05-07T05:00:12;16.05;;;14.60;;
68168;SDS011;54981;50.206;15.978;2023-05-07T05:02:44;16.23;;;14.82;;
68168;SDS011;54981;50.206;15.978;2023-05-07T05:05:14;14.30;;;13.10;;
68168;SDS011;54981;50.206;15.978;2023-05-07T05:07:45;14.93;;;13.68;;
68168;SDS011;54981;50.206;15.978;2023-05-07T05:10:15;13.90;;;12.80;;
68168;SDS011;54981;50.206;15.978;2023-05-07T05:12:46;13.63;;;12.52;;
68168;SDS011;54981;50.206;15.978;2023-05-07T05:15:16;14.25;;;13.05;;
68168;SDS011;54981;50.206;15.978;2023-05-07T05:17:47;15.10;;;13.90;;
68168;SDS011;54981;50.206;15.978;2023-05-07T05:20:17;14.65;;;13.45;;
68168;SDS011;54981;50.206;15.978;2023-05-07T05:22:47;14.02;;;12.82;;
68168;SDS011;54981;50.206;15.978;2023-05-07T05:25:18;13.75;;;12.65;;
68168;SDS011;54981;50.206;15.978;2023-05-07T05:27:48;14.10;;;13.00;;
68168;SDS011;54981;50.206;15.978;2023-05-07T05:30:19;13.95;;;12.75;;
68168;SDS011;54981;50.206;15.978;2023-05-07T05:32:49;13.90;;;12.70;;
68168;SDS011;54981;50.206;15.978;2023-05-07T05:35:19;13.38;;;12.25;;
68168;SDS011;54981;50.206;15.978;2023-05-07T05:37:50;13.45;;;12.35;;
68168;SDS011;54981;50.206;15.978;2023-05-07T05:40:20;13.98;;;12.75;;
68168;SDS011;54981;50.206;15.978;2023-05-07T05:42:50;13.48;;;12.38;;
68168;SDS011;54981;50.206;15.978;2023-05-07T05:45:21;12.98;;;11.88;;
68168;SDS011;54981;50.206;15.978;2023-05-07T05:47:51;13.43;;;12.32;;
68168;SDS011;54981;50.206;15.978;2023-05-07T05:50:21;13.05;;;12.05;;
68168;SDS011;54981;50.206;15.978;2023-05-07T05:52:52;12.07;;;11.07;;
68168;SDS011;54981;50.206;15.978;2023-05-07T05:55:22;11.18;;;10.20;;
68168;SDS011;54981;50.206;15.978;2023-05-07T05:57:53;12.82;;;11.75;;
68168;SDS011;54981;50.206;15.978;2023-05-07T06:00:23;13.00;;;11.93;;
68168;SDS011;54981;50.206;15.978;2023-05-07T06:02:54;12.93;;;11.88;;
68168;SDS011;54981;50.206;15.978;2023-05-07T06:05:24;12.13;;;11.13;;
68168;SDS011;54981;50.206;15.978;2023-05-07T06:07:55;12.02;;;11.07;;
68168;SDS011;54981;50.206;15.978;2023-05-07T06:10:25;12.85;;;11.75;;
68168;SDS011;54981;50.206;15.978;2023-05-07T06:12:57;12.38;;;11.38;;
68168;SDS011;54981;50.206;15.978;2023-05-07T06:15:27;14.13;;;13.00;;
68168;SDS011;54981;50.206;15.978;2023-05-07T06:17:57;15.02;;;13.73;;
68168;SDS011;54981;50.206;15.978;2023-05-07T06:20:28;14.93;;;13.70;;
68168;SDS011;54981;50.206;15.978;2023-05-07T06:22:58;15.20;;;13.88;;
68168;SDS011;54981;50.206;15.978;2023-05-07T06:25:28;15.60;;;14.30;;
68168;SDS011;54981;50.206;15.978;2023-05-07T06:27:59;14.60;;;13.40;;
68168;SDS011;54981;50.206;15.978;2023-05-07T06:30:29;15.02;;;13.63;;
68168;SDS011;54981;50.206;15.978;2023-05-07T06:32:59;14.70;;;13.43;;
68168;SDS011;54981;50.206;15.978;2023-05-07T06:35:30;15.88;;;14.57;;
68168;SDS011;54981;50.206;15.978;2023-05-07T06:38:00;13.45;;;12.25;;
68168;SDS011;54981;50.206;15.978;2023-05-07T06:40:30;16.08;;;14.77;;
68168;SDS011;54981;50.206;15.978;2023-05-07T06:43:01;14.18;;;12.90;;
68168;SDS011;54981;50.206;15.978;2023-05-07T06:45:31;15.10;;;13.90;;
68168;SDS011;54981;50.206;15.978;2023-05-07T06:48:02;15.93;;;14.63;;
68168;SDS011;54981;50.206;15.978;2023-05-07T06:50:32;14.43;;;13.32;;
68168;SDS011;54981;50.206;15.978;2023-05-07T06:53:02;13.60;;;12.50;;
68168;SDS011;54981;50.206;15.978;2023-05-07T06:55:33;11.98;;;10.88;;
68168;SDS011;54981;50.206;15.978;2023-05-07T06:58:03;13.70;;;12.50;;
68168;SDS011;54981;50.206;15.978;2023-05-07T07:00:34;12.93;;;11.85;;
68168;SDS011;54981;50.206;15.978;2023-05-07T07:03:05;13.50;;;12.40;;
68168;SDS011;54981;50.206;15.978;2023-05-07T07:05:35;14.02;;;12.82;;
68168;SDS011;54981;50.206;15.978;2023-05-07T07:08:05;12.18;;;11.18;;
68168;SDS011;54981;50.206;15.978;2023-05-07T07:10:36;12.05;;;11.05;;
68168;SDS011;54981;50.206;15.978;2023-05-07T07:13:06;12.90;;;11.80;;
68168;SDS011;54981;50.206;15.978;2023-05-07T07:15:40;13.88;;;12.63;;
68168;SDS011;54981;50.206;15.978;2023-05-07T07:18:10;13.60;;;12.50;;
68168;SDS011;54981;50.206;15.978;2023-05-07T07:20:40;13.85;;;12.75;;
68168;SDS011;54981;50.206;15.978;2023-05-07T07:23:11;14.98;;;13.73;;
68168;SDS011;54981;50.206;15.978;2023-05-07T07:25:41;14.43;;;13.13;;
68168;SDS011;54981;50.206;15.978;2023-05-07T07:28:12;13.70;;;12.45;;
68168;SDS011;54981;50.206;15.978;2023-05-07T07:30:42;13.20;;;12.18;;
68168;SDS011;54981;50.206;15.978;2023-05-07T07:33:12;12.80;;;11.80;;
68168;SDS011;54981;50.206;15.978;2023-05-07T07:35:43;11.75;;;10.75;;
68168;SDS011;54981;50.206;15.978;2023-05-07T07:38:13;12.10;;;11.00;;
68168;SDS011;54981;50.206;15.978;2023-05-07T07:40:43;12.13;;;11.13;;
68168;SDS011;54981;50.206;15.978;2023-05-07T07:43:14;12.88;;;11.88;;
68168;SDS011;54981;50.206;15.978;2023-05-07T07:45:44;13.82;;;12.70;;
68168;SDS011;54981;50.206;15.978;2023-05-07T07:48:15;13.23;;;12.13;;
68168;SDS011;54981;50.206;15.978;2023-05-07T07:50:48;14.48;;;13.27;;
68168;SDS011;54981;50.206;15.978;2023-05-07T07:53:20;15.75;;;14.45;;
68168;SDS011;54981;50.206;15.978;2023-05-07T07:55:50;14.68;;;13.48;;
68168;SDS011;54981;50.206;15.978;2023-05-07T07:58:21;16.70;;;15.27;;
68168;SDS011;54981;50.206;15.978;2023-05-07T08:00:52;16.98;;;15.35;;
68168;SDS011;54981;50.206;15.978;2023-05-07T08:03:22;15.77;;;14.43;;
68168;SDS011;54981;50.206;15.978;2023-05-07T08:05:52;16.15;;;14.77;;
68168;SDS011;54981;50.206;15.978;2023-05-07T08:08:23;15.88;;;14.45;;
68168;SDS011;54981;50.206;15.978;2023-05-07T08:10:53;14.65;;;13.43;;
68168;SDS011;54981;50.206;15.978;2023-05-07T08:13:23;16.40;;;14.95;;
68168;SDS011;54981;50.206;15.978;2023-05-07T08:15:54;17.27;;;15.68;;
68168;SDS011;54981;50.206;15.978;2023-05-07T08:18:25;14.95;;;13.65;;
68168;SDS011;54981;50.206;15.978;2023-05-07T08:20:55;14.20;;;12.88;;
68168;SDS011;54981;50.206;15.978;2023-05-07T08:23:26;15.32;;;13.95;;
68168;SDS011;54981;50.206;15.978;2023-05-07T08:25:56;13.68;;;12.48;;
68168;SDS011;54981;50.206;15.978;2023-05-07T08:28:26;15.65;;;14.35;;
68168;SDS011;54981;50.206;15.978;2023-05-07T08:30:57;16.02;;;14.40;;
68168;SDS011;54981;50.206;15.978;2023-05-07T08:33:29;16.20;;;14.77;;
68168;SDS011;54981;50.206;15.978;2023-05-07T08:36:00;16.33;;;14.88;;
68168;SDS011;54981;50.206;15.978;2023-05-07T08:38:31;15.65;;;14.25;;
68168;SDS011;54981;50.206;15.978;2023-05-07T08:41:01;16.75;;;15.25;;
68168;SDS011;54981;50.206;15.978;2023-05-07T08:43:32;15.48;;;14.07;;
68168;SDS011;54981;50.206;15.978;2023-05-07T08:46:04;16.25;;;14.82;;
68168;SDS011;54981;50.206;15.978;2023-05-07T08:48:35;16.25;;;14.82;;
68168;SDS011;54981;50.206;15.978;2023-05-07T08:51:06;15.38;;;14.07;;
68168;SDS011;54981;50.206;15.978;2023-05-07T08:53:36;17.13;;;15.52;;
68168;SDS011;54981;50.206;15.978;2023-05-07T08:56:10;14.95;;;13.55;;
68168;SDS011;54981;50.206;15.978;2023-05-07T08:58:44;15.40;;;14.00;;
68168;SDS011;54981;50.206;15.978;2023-05-07T09:01:15;14.85;;;13.55;;
68168;SDS011;54981;50.206;15.978;2023-05-07T09:03:47;15.35;;;13.95;;
68168;SDS011;54981;50.206;15.978;2023-05-07T09:06:17;13.93;;;12.63;;
68168;SDS011;54981;50.206;15.978;2023-05-07T09:08:51;14.95;;;13.65;;
68168;SDS011;54981;50.206;15.978;2023-05-07T09:11:23;13.13;;;12.02;;
68168;SDS011;54981;50.206;15.978;2023-05-07T09:13:55;14.43;;;12.80;;
68168;SDS011;54981;50.206;15.978;2023-05-07T09:16:26;14.98;;;13.68;;
68168;SDS011;54981;50.206;15.978;2023-05-07T09:18:59;16.85;;;15.35;;
68168;SDS011;54981;50.206;15.978;2023-05-07T09:21:30;17.08;;;15.63;;
68168;SDS011;54981;50.206;15.978;2023-05-07T09:24:01;16.05;;;14.57;;
68168;SDS011;54981;50.206;15.978;2023-05-07T09:26:32;15.43;;;14.13;;
68168;SDS011;54981;50.206;15.978;2023-05-07T09:29:03;16.30;;;14.82;;
68168;SDS011;54981;50.206;15.978;2023-05-07T09:31:36;16.50;;;15.00;;
68168;SDS011;54981;50.206;15.978;2023-05-07T09:34:07;16.55;;;15.13;;
68168;SDS011;54981;50.206;15.978;2023-05-07T09:36:38;15.68;;;14.38;;
68168;SDS011;54981;50.206;15.978;2023-05-07T09:39:08;16.13;;;14.63;;
68168;SDS011;54981;50.206;15.978;2023-05-07T09:41:48;16.00;;;14.60;;
68168;SDS011;54981;50.206;15.978;2023-05-07T09:44:24;17.23;;;15.70;;
68168;SDS011;54981;50.206;15.978;2023-05-07T09:46:54;17.75;;;16.25;;
68168;SDS011;54981;50.206;15.978;2023-05-07T09:49:26;16.20;;;14.77;;
68168;SDS011;54981;50.206;15.978;2023-05-07T09:52:02;16.40;;;14.90;;
68168;SDS011;54981;50.206;15.978;2023-05-07T09:54:36;18.90;;;17.23;;
68168;SDS011;54981;50.206;15.978;2023-05-07T09:57:07;18.30;;;16.70;;
68168;SDS011;54981;50.206;15.978;2023-05-07T09:59:41;17.77;;;16.17;;
68168;SDS011;54981;50.206;15.978;2023-05-07T10:02:13;18.17;;;16.58;;
68168;SDS011;54981;50.206;15.978;2023-05-07T10:04:45;18.15;;;16.55;;
68168;SDS011;54981;50.206;15.978;2023-05-07T10:07:16;20.25;;;18.52;;
68168;SDS011;54981;50.206;15.978;2023-05-07T10:09:47;21.75;;;19.63;;
68168;SDS011;54981;50.206;15.978;2023-05-07T10:12:18;22.38;;;20.30;;
68168;SDS011;54981;50.206;15.978;2023-05-07T10:14:50;19.55;;;17.85;;
68168;SDS011;54981;50.206;15.978;2023-05-07T10:17:23;21.33;;;19.37;;
68168;SDS011;54981;50.206;15.978;2023-05-07T10:19:53;19.67;;;17.98;;
68168;SDS011;54981;50.206;15.978;2023-05-07T10:22:24;21.63;;;19.73;;
68168;SDS011;54981;50.206;15.978;2023-05-07T10:24:57;22.45;;;20.45;;
68168;SDS011;54981;50.206;15.978;2023-05-07T10:27:31;18.75;;;16.98;;
68168;SDS011;54981;50.206;15.978;2023-05-07T10:33:01;23.92;;;21.83;;
68168;SDS011;54981;50.206;15.978;2023-05-07T10:35:38;22.50;;;20.40;;
68168;SDS011;54981;50.206;15.978;2023-05-07T10:38:13;19.40;;;17.70;;
68168;SDS011;54981;50.206;15.978;2023-05-07T10:40:44;21.35;;;19.55;;
68168;SDS011;54981;50.206;15.978;2023-05-07T10:43:15;20.92;;;19.13;;
68168;SDS011;54981;50.206;15.978;2023-05-07T10:46:08;23.98;;;21.67;;
68168;SDS011;54981;50.206;15.978;2023-05-07T10:51:38;22.60;;;20.50;;
68168;SDS011;54981;50.206;15.978;2023-05-07T10:56:40;24.52;;;22.10;;
68168;SDS011;54981;50.206;15.978;2023-05-07T11:01:54;24.35;;;22.15;;
68168;SDS011;54981;50.206;15.978;2023-05-07T11:04:27;23.95;;;21.75;;
68168;SDS011;54981;50.206;15.978;2023-05-07T11:15:13;22.95;;;20.85;;
68168;SDS011;54981;50.206;15.978;2023-05-07T11:26:09;18.90;;;17.23;;
68168;SDS011;54981;50.206;15.978;2023-05-07T11:28:42;20.15;;;18.35;;
68168;SDS011;54981;50.206;15.978;2023-05-07T11:31:13;18.17;;;16.58;;
68168;SDS011;54981;50.206;15.978;2023-05-07T11:33:43;19.27;;;17.58;;
68168;SDS011;54981;50.206;15.978;2023-05-07T11:36:14;19.63;;;17.83;;
68168;SDS011;54981;50.206;15.978;2023-05-07T11:38:45;20.15;;;18.33;;
68168;SDS011;54981;50.206;15.978;2023-05-07T11:41:16;20.15;;;18.35;;
68168;SDS011;54981;50.206;15.978;2023-05-07T11:43:58;18.52;;;16.83;;
68168;SDS011;54981;50.206;15.978;2023-05-07T11:46:29;16.85;;;15.35;;
68168;SDS011;54981;50.206;15.978;2023-05-07T11:49:00;16.17;;;14.77;;
68168;SDS011;54981;50.206;15.978;2023-05-07T11:51:30;15.73;;;14.35;;
68168;SDS011;54981;50.206;15.978;2023-05-07T11:54:03;12.02;;;11.02;;
68168;SDS011;54981;50.206;15.978;2023-05-07T11:56:34;11.55;;;10.63;;
68168;SDS011;54981;50.206;15.978;2023-05-07T11:59:09;12.18;;;11.07;;
68168;SDS011;54981;50.206;15.978;2023-05-07T12:01:39;12.23;;;11.23;;
68168;SDS011;54981;50.206;15.978;2023-05-07T12:04:09;13.27;;;12.18;;
68168;SDS011;54981;50.206;15.978;2023-05-07T12:06:40;12.80;;;11.70;;
68168;SDS011;54981;50.206;15.978;2023-05-07T12:09:10;11.82;;;10.63;;
68168;SDS011;54981;50.206;15.978;2023-05-07T12:11:41;11.70;;;10.68;;
68168;SDS011;54981;50.206;15.978;2023-05-07T12:14:16;12.43;;;11.35;;
68168;SDS011;54981;50.206;15.978;2023-05-07T12:16:46;12.60;;;11.55;;
68168;SDS011;54981;50.206;15.978;2023-05-07T12:19:16;12.55;;;11.38;;
68168;SDS011;54981;50.206;15.978;2023-05-07T12:21:47;12.80;;;11.35;;
68168;SDS011;54981;50.206;15.978;2023-05-07T12:24:18;12.48;;;11.48;;
68168;SDS011;54981;50.206;15.978;2023-05-07T12:26:48;11.45;;;10.45;;
68168;SDS011;54981;50.206;15.978;2023-05-07T12:29:22;12.82;;;11.73;;
68168;SDS011;54981;50.206;15.978;2023-05-07T12:31:52;13.35;;;12.05;;
68168;SDS011;54981;50.206;15.978;2023-05-07T12:34:23;12.32;;;10.48;;
68168;SDS011;54981;50.206;15.978;2023-05-07T12:36:53;11.27;;;10.27;;
68168;SDS011;54981;50.206;15.978;2023-05-07T12:39:24;11.02;;;10.02;;
68168;SDS011;54981;50.206;15.978;2023-05-07T12:41:55;11.50;;;10.50;;
68168;SDS011;54981;50.206;15.978;2023-05-07T12:44:29;12.38;;;11.27;;
68168;SDS011;54981;50.206;15.978;2023-05-07T12:47:01;12.65;;;10.68;;
68168;SDS011;54981;50.206;15.978;2023-05-07T12:49:33;11.68;;;10.70;;
68168;SDS011;54981;50.206;15.978;2023-05-07T12:52:04;12.55;;;11.40;;
68168;SDS011;54981;50.206;15.978;2023-05-07T12:54:37;11.50;;;10.60;;
68168;SDS011;54981;50.206;15.978;2023-05-07T12:57:08;11.15;;;10.18;;
68168;SDS011;54981;50.206;15.978;2023-05-07T12:59:40;13.13;;;11.93;;
68168;SDS011;54981;50.206;15.978;2023-05-07T13:02:11;10.73;;;9.77;;
68168;SDS011;54981;50.206;15.978;2023-05-07T13:04:42;10.50;;;9.32;;
68168;SDS011;54981;50.206;15.978;2023-05-07T13:07:12;10.98;;;9.98;;
68168;SDS011;54981;50.206;15.978;2023-05-07T13:09:42;11.55;;;10.65;;
68168;SDS011;54981;50.206;15.978;2023-05-07T13:12:13;10.43;;;9.52;;
68168;SDS011;54981;50.206;15.978;2023-05-07T13:14:43;10.90;;;9.52;;
68168;SDS011;54981;50.206;15.978;2023-05-07T13:17:13;10.10;;;9.30;;
68168;SDS011;54981;50.206;15.978;2023-05-07T13:19:44;10.70;;;9.80;;
68168;SDS011;54981;50.206;15.978;2023-05-07T13:22:14;10.02;;;9.23;;
68168;SDS011;54981;50.206;15.978;2023-05-07T13:24:44;10.73;;;9.82;;
68168;SDS011;54981;50.206;15.978;2023-05-07T13:27:15;11.07;;;10.02;;
68168;SDS011;54981;50.206;15.978;2023-05-07T13:29:45;10.80;;;9.85;;
68168;SDS011;54981;50.206;15.978;2023-05-07T13:32:15;10.15;;;9.30;;
68168;SDS011;54981;50.206;15.978;2023-05-07T13:34:46;11.27;;;10.27;;
68168;SDS011;54981;50.206;15.978;2023-05-07T13:37:16;11.50;;;10.40;;
68168;SDS011;54981;50.206;15.978;2023-05-07T13:39:46;11.05;;;10.05;;
68168;SDS011;54981;50.206;15.978;2023-05-07T13:42:17;11.38;;;10.27;;
68168;SDS011;54981;50.206;15.978;2023-05-07T13:44:47;10.90;;;10.00;;
68168;SDS011;54981;50.206;15.978;2023-05-07T13:47:18;11.65;;;10.65;;
68168;SDS011;54981;50.206;15.978;2023-05-07T13:49:48;11.57;;;10.65;;
68168;SDS011;54981;50.206;15.978;2023-05-07T13:52:21;10.65;;;9.75;;
68168;SDS011;54981;50.206;15.978;2023-05-07T13:54:52;11.15;;;10.25;;
68168;SDS011;54981;50.206;15.978;2023-05-07T13:57:22;11.60;;;10.68;;
68168;SDS011;54981;50.206;15.978;2023-05-07T13:59:52;11.98;;;10.88;;
68168;SDS011;54981;50.206;15.978;2023-05-07T14:02:23;14.45;;;12.75;;
68168;SDS011;54981;50.206;15.978;2023-05-07T14:04:53;16.98;;;15.23;;
68168;SDS011;54981;50.206;15.978;2023-05-07T14:07:23;15.18;;;13.68;;
68168;SDS011;54981;50.206;15.978;2023-05-07T14:09:54;11.38;;;10.43;;
68168;SDS011;54981;50.206;15.978;2023-05-07T14:12:25;11.80;;;10.73;;
68168;SDS011;54981;50.206;15.978;2023-05-07T14:14:55;11.77;;;10.77;;
68168;SDS011;54981;50.206;15.978;2023-05-07T14:17:26;12.40;;;11.30;;
68168;SDS011;54981;50.206;15.978;2023-05-07T14:19:57;11.68;;;10.68;;
68168;SDS011;54981;50.206;15.978;2023-05-07T14:22:27;12.18;;;11.18;;
68168;SDS011;54981;50.206;15.978;2023-05-07T14:24:57;12.63;;;11.52;;
68168;SDS011;54981;50.206;15.978;2023-05-07T14:27:28;11.25;;;10.25;;
68168;SDS011;54981;50.206;15.978;2023-05-07T14:29:58;12.70;;;11.60;;
68168;SDS011;54981;50.206;15.978;2023-05-07T14:32:28;12.73;;;11.57;;
68168;SDS011;54981;50.206;15.978;2023-05-07T14:34:59;12.82;;;11.63;;
68168;SDS011;54981;50.206;15.978;2023-05-07T14:37:29;14.15;;;12.63;;
68168;SDS011;54981;50.206;15.978;2023-05-07T14:40:00;14.70;;;13.23;;
68168;SDS011;54981;50.206;15.978;2023-05-07T14:42:30;12.70;;;11.60;;
68168;SDS011;54981;50.206;15.978;2023-05-07T14:45:01;14.43;;;13.13;;
68168;SDS011;54981;50.206;15.978;2023-05-07T14:47:32;13.68;;;12.55;;
68168;SDS011;54981;50.206;15.978;2023-05-07T14:50:02;13.52;;;12.32;;
68168;SDS011;54981;50.206;15.978;2023-05-07T14:52:32;13.85;;;12.65;;
68168;SDS011;54981;50.206;15.978;2023-05-07T14:55:03;14.05;;;12.95;;
68168;SDS011;54981;50.206;15.978;2023-05-07T14:57:34;13.35;;;12.23;;